Airfield :
LOGIN :

Register | Disclaimer

   EN    FR    IT 

 










Legend :    VFR   Marginal VFR   IFR   Intensive IFR   Very Intensive IFR
Visi :
Ceiling :
>= 8 km
>= 3000ft
5 to 8 km
1000 to 3000 ft
1500m to 5 km
500 to 1000 ft
800 to 1500m
200 to 500 ft
< 800m
< 200 ft
Symbols :   Thunderstorms  Fog  Heavy snow  Heavy precipitations  Wind > 20 kt
SIGMETs :     Misc.  Thunderstorms  Icing  Turbulence  Mountain Waves  Volcanic Ashes







- Airport Elevation : 0 ft


ETEB - Ansbach Army Heliport

CURRENT METAR :
  • 270656Z AUTO 01011KT 9999 CLR 24/19 A3026 RMK AO2 SLP230 T02410187 $

EXPIRED METARs :
  • 270556Z AUTO 02009KT 9999 CLR 23/19 A3025 RMK AO2 SLP227 T02340189 10247 20209 53005 $
  • 270456Z AUTO 01007KT 9999 CLR 23/19 A3024 RMK AO2 SLP222 T02270186 $

TAF TAF ETEB
Valid from the 27 at 05:00 until the 28 at 11:00 UTC


270507Z 2705/2811 02009KT 9999 FEW040 QNH3016INS
BECMG 2712/2713 34009KT 9999 SKC QNH3012INS
BECMG 2722/2723 VRB06KT 9999 SKC QNH3014INS TX30/2714Z TN11/2804Z
No reported NOTAMs for that airfield.



MET'MAP, your aeronautical weather chart ! - Copyright ORBIFLY December 2007 - Disclaimer

ORBIFLY MET'MAP TEAM :

Programming & Development : Alexandra Zaïnal
Concept & Development : Baudouin d'Aumeries
Co-Development & Prog : Marc-Olivier Méhu
Technical & hardware support : Manuel Goepfert

Contact : metmap@orbifly.com




SOURCES & CREDITS :

   NOAA